sensor_id;sensor_type;location;lat;lon;timestamp;temperature;humidity
31819;DHT22;18384;48.860;9.188;2023-07-02T00:02:01;18.80;99.90
31819;DHT22;18384;48.860;9.188;2023-07-02T00:04:27;18.80;99.90
31819;DHT22;18384;48.860;9.188;2023-07-02T00:06:53;18.90;99.90
31819;DHT22;18384;48.860;9.188;2023-07-02T00:09:19;18.80;99.90
31819;DHT22;18384;48.860;9.188;2023-07-02T00:11:46;18.80;99.90
31819;DHT22;18384;48.860;9.188;2023-07-02T00:14:12;18.80;99.90
31819;DHT22;18384;48.860;9.188;2023-07-02T00:16:44;18.70;99.90
31819;DHT22;18384;48.860;9.188;2023-07-02T00:19:14;18.70;99.90
31819;DHT22;18384;48.860;9.188;2023-07-02T00:21:41;18.70;99.90
31819;DHT22;18384;48.860;9.188;2023-07-02T00:24:08;18.70;99.90
31819;DHT22;18384;48.860;9.188;2023-07-02T00:26:38;18.60;99.90
31819;DHT22;18384;48.860;9.188;2023-07-02T00:29:05;18.60;99.90
31819;DHT22;18384;48.860;9.188;2023-07-02T00:31:32;18.60;99.90
31819;DHT22;18384;48.860;9.188;2023-07-02T00:33:59;18.50;99.90
31819;DHT22;18384;48.860;9.188;2023-07-02T00:36:29;18.50;99.90
31819;DHT22;18384;48.860;9.188;2023-07-02T00:38:56;18.50;99.90
31819;DHT22;18384;48.860;9.188;2023-07-02T00:41:23;18.40;99.90
31819;DHT22;18384;48.860;9.188;2023-07-02T00:43:49;18.40;99.90
31819;DHT22;18384;48.860;9.188;2023-07-02T00:46:17;18.50;99.90
31819;DHT22;18384;48.860;9.188;2023-07-02T00:48:50;18.30;99.90
31819;DHT22;18384;48.860;9.188;2023-07-02T00:51:20;18.30;99.90
31819;DHT22;18384;48.860;9.188;2023-07-02T00:53:49;18.30;99.90
31819;DHT22;18384;48.860;9.188;2023-07-02T00:56:17;18.30;99.90
31819;DHT22;18384;48.860;9.188;2023-07-02T00:58:45;18.30;99.90
31819;DHT22;18384;48.860;9.188;2023-07-02T01:01:21;18.30;99.90
31819;DHT22;18384;48.860;9.188;2023-07-02T01:03:59;18.30;99.90
31819;DHT22;18384;48.860;9.188;2023-07-02T01:06:28;18.30;99.90
31819;DHT22;18384;48.860;9.188;2023-07-02T01:09:00;18.30;99.90
31819;DHT22;18384;48.860;9.188;2023-07-02T01:11:30;18.40;99.90
31819;DHT22;18384;48.860;9.188;2023-07-02T01:14:25;18.40;99.90
31819;DHT22;18384;48.860;9.188;2023-07-02T01:16:53;18.30;99.90
31819;DHT22;18384;48.860;9.188;2023-07-02T01:19:50;18.30;99.90
31819;DHT22;18384;48.860;9.188;2023-07-02T01:22:23;18.40;99.90
31819;DHT22;18384;48.860;9.188;2023-07-02T01:24:51;18.40;99.90
31819;DHT22;18384;48.860;9.188;2023-07-02T01:27:18;18.40;99.90
31819;DHT22;18384;48.860;9.188;2023-07-02T01:29:44;18.40;99.90
31819;DHT22;18384;48.860;9.188;2023-07-02T01:32:13;18.30;99.60
31819;DHT22;18384;48.860;9.188;2023-07-02T01:34:39;18.30;99.90
31819;DHT22;18384;48.860;9.188;2023-07-02T01:37:06;18.30;99.80
31819;DHT22;18384;48.860;9.188;2023-07-02T01:39:34;18.20;99.70
31819;DHT22;18384;48.860;9.188;2023-07-02T01:42:11;18.20;99.90
31819;DHT22;18384;48.860;9.188;2023-07-02T01:44:40;18.20;99.90
31819;DHT22;18384;48.860;9.188;2023-07-02T01:47:06;18.30;99.90
31819;DHT22;18384;48.860;9.188;2023-07-02T01:49:32;18.20;99.90
31819;DHT22;18384;48.860;9.188;2023-07-02T01:51:58;18.30;99.70
31819;DHT22;18384;48.860;9.188;2023-07-02T01:54:26;18.40;99.90
31819;DHT22;18384;48.860;9.188;2023-07-02T01:56:53;18.30;99.90
31819;DHT22;18384;48.860;9.188;2023-07-02T01:59:20;18.30;99.90
31819;DHT22;18384;48.860;9.188;2023-07-02T02:01:46;18.30;99.90
31819;DHT22;18384;48.860;9.188;2023-07-02T02:04:12;18.30;99.80
31819;DHT22;18384;48.860;9.188;2023-07-02T02:06:38;18.20;99.90
31819;DHT22;18384;48.860;9.188;2023-07-02T02:09:05;18.30;99.80
31819;DHT22;18384;48.860;9.188;2023-07-02T02:11:33;18.20;99.80
31819;DHT22;18384;48.860;9.188;2023-07-02T02:13:59;18.20;99.90
31819;DHT22;18384;48.860;9.188;2023-07-02T02:16:27;18.20;99.80
31819;DHT22;18384;48.860;9.188;2023-07-02T02:18:53;18.20;99.90
31819;DHT22;18384;48.860;9.188;2023-07-02T02:21:20;18.20;99.70
31819;DHT22;18384;48.860;9.188;2023-07-02T02:23:47;18.20;99.80
31819;DHT22;18384;48.860;9.188;2023-07-02T02:26:13;18.30;99.80
31819;DHT22;18384;48.860;9.188;2023-07-02T02:28:41;18.30;99.90
31819;DHT22;18384;48.860;9.188;2023-07-02T02:31:07;18.30;99.90
31819;DHT22;18384;48.860;9.188;2023-07-02T02:33:34;18.30;99.90
31819;DHT22;18384;48.860;9.188;2023-07-02T02:36:01;18.30;99.90
31819;DHT22;18384;48.860;9.188;2023-07-02T02:38:28;18.40;99.90
31819;DHT22;18384;48.860;9.188;2023-07-02T02:40:54;18.50;99.90
31819;DHT22;18384;48.860;9.188;2023-07-02T02:43:20;18.50;99.90
31819;DHT22;18384;48.860;9.188;2023-07-02T02:45:46;18.50;99.90
31819;DHT22;18384;48.860;9.188;2023-07-02T02:48:13;18.50;99.70
31819;DHT22;18384;48.860;9.188;2023-07-02T02:50:39;18.50;99.70
31819;DHT22;18384;48.860;9.188;2023-07-02T02:53:07;18.50;99.40
31819;DHT22;18384;48.860;9.188;2023-07-02T02:55:34;18.60;99.90
31819;DHT22;18384;48.860;9.188;2023-07-02T02:58:01;18.60;99.50
31819;DHT22;18384;48.860;9.188;2023-07-02T03:00:27;18.60;99.40
31819;DHT22;18384;48.860;9.188;2023-07-02T03:02:53;18.60;99.20
31819;DHT22;18384;48.860;9.188;2023-07-02T03:05:19;18.60;99.00
31819;DHT22;18384;48.860;9.188;2023-07-02T03:07:45;18.60;99.30
31819;DHT22;18384;48.860;9.188;2023-07-02T03:10:11;18.60;99.60
31819;DHT22;18384;48.860;9.188;2023-07-02T03:12:37;18.50;99.10
31819;DHT22;18384;48.860;9.188;2023-07-02T03:15:04;18.50;99.10
31819;DHT22;18384;48.860;9.188;2023-07-02T03:17:30;18.60;98.80
31819;DHT22;18384;48.860;9.188;2023-07-02T03:19:56;18.60;98.90
31819;DHT22;18384;48.860;9.188;2023-07-02T03:22:22;18.50;98.70
31819;DHT22;18384;48.860;9.188;2023-07-02T03:24:48;18.40;99.20
31819;DHT22;18384;48.860;9.188;2023-07-02T03:27:14;18.30;99.30
31819;DHT22;18384;48.860;9.188;2023-07-02T03:29:41;18.30;99.20
31819;DHT22;18384;48.860;9.188;2023-07-02T03:32:07;18.30;99.40
31819;DHT22;18384;48.860;9.188;2023-07-02T03:34:33;18.30;99.70
31819;DHT22;18384;48.860;9.188;2023-07-02T03:36:59;18.30;99.50
31819;DHT22;18384;48.860;9.188;2023-07-02T03:39:26;18.30;99.50
31819;DHT22;18384;48.860;9.188;2023-07-02T03:41:52;18.30;99.80
31819;DHT22;18384;48.860;9.188;2023-07-02T03:44:18;18.20;98.70
31819;DHT22;18384;48.860;9.188;2023-07-02T03:46:45;18.10;98.30
31819;DHT22;18384;48.860;9.188;2023-07-02T03:49:11;18.00;98.40
31819;DHT22;18384;48.860;9.188;2023-07-02T03:51:37;18.00;98.60
31819;DHT22;18384;48.860;9.188;2023-07-02T03:54:04;18.00;98.30
31819;DHT22;18384;48.860;9.188;2023-07-02T03:56:30;18.00;98.10
31819;DHT22;18384;48.860;9.188;2023-07-02T03:58:56;18.00;98.00
31819;DHT22;18384;48.860;9.188;2023-07-02T04:01:22;17.90;98.40
31819;DHT22;18384;48.860;9.188;2023-07-02T04:03:50;17.90;98.40
31819;DHT22;18384;48.860;9.188;2023-07-02T04:06:18;17.90;98.30
31819;DHT22;18384;48.860;9.188;2023-07-02T04:08:44;17.90;98.60
31819;DHT22;18384;48.860;9.188;2023-07-02T04:11:11;17.90;98.50
31819;DHT22;18384;48.860;9.188;2023-07-02T04:13:38;17.90;98.20
31819;DHT22;18384;48.860;9.188;2023-07-02T04:16:05;17.90;98.00
31819;DHT22;18384;48.860;9.188;2023-07-02T04:18:31;17.90;98.20
31819;DHT22;18384;48.860;9.188;2023-07-02T04:20:58;17.90;98.20
31819;DHT22;18384;48.860;9.188;2023-07-02T04:23:25;17.90;98.40
31819;DHT22;18384;48.860;9.188;2023-07-02T04:25:51;17.90;98.40
31819;DHT22;18384;48.860;9.188;2023-07-02T04:28:17;17.90;98.00
31819;DHT22;18384;48.860;9.188;2023-07-02T04:30:44;17.90;98.30
31819;DHT22;18384;48.860;9.188;2023-07-02T04:33:11;17.90;98.20
31819;DHT22;18384;48.860;9.188;2023-07-02T04:35:39;18.00;98.60
31819;DHT22;18384;48.860;9.188;2023-07-02T04:38:06;18.00;98.20
31819;DHT22;18384;48.860;9.188;2023-07-02T04:40:32;18.00;98.00
31819;DHT22;18384;48.860;9.188;2023-07-02T04:42:58;18.00;98.20
31819;DHT22;18384;48.860;9.188;2023-07-02T04:45:26;18.00;98.10
31819;DHT22;18384;48.860;9.188;2023-07-02T04:47:52;18.10;98.20
31819;DHT22;18384;48.860;9.188;2023-07-02T04:50:19;18.10;97.90
31819;DHT22;18384;48.860;9.188;2023-07-02T04:52:45;18.20;97.80
31819;DHT22;18384;48.860;9.188;2023-07-02T04:55:11;18.20;97.70
31819;DHT22;18384;48.860;9.188;2023-07-02T04:57:38;18.20;97.70
31819;DHT22;18384;48.860;9.188;2023-07-02T05:00:04;18.30;97.30
31819;DHT22;18384;48.860;9.188;2023-07-02T05:02:34;18.40;97.00
31819;DHT22;18384;48.860;9.188;2023-07-02T05:05:00;18.50;97.10
31819;DHT22;18384;48.860;9.188;2023-07-02T05:07:26;18.60;97.40
31819;DHT22;18384;48.860;9.188;2023-07-02T05:09:52;18.60;96.90
31819;DHT22;18384;48.860;9.188;2023-07-02T05:12:19;18.70;96.30
31819;DHT22;18384;48.860;9.188;2023-07-02T05:14:45;18.70;96.70
31819;DHT22;18384;48.860;9.188;2023-07-02T05:17:11;18.70;96.20
31819;DHT22;18384;48.860;9.188;2023-07-02T05:19:43;18.70;96.10
31819;DHT22;18384;48.860;9.188;2023-07-02T05:22:09;18.70;96.00
31819;DHT22;18384;48.860;9.188;2023-07-02T05:24:36;18.70;96.10
31819;DHT22;18384;48.860;9.188;2023-07-02T05:27:02;18.80;95.30
31819;DHT22;18384;48.860;9.188;2023-07-02T05:29:29;18.90;95.60
31819;DHT22;18384;48.860;9.188;2023-07-02T05:31:55;18.90;96.10
31819;DHT22;18384;48.860;9.188;2023-07-02T05:34:21;19.00;95.70
31819;DHT22;18384;48.860;9.188;2023-07-02T05:36:47;19.10;95.80
31819;DHT22;18384;48.860;9.188;2023-07-02T05:39:13;19.20;95.30
31819;DHT22;18384;48.860;9.188;2023-07-02T05:41:39;19.40;95.20
31819;DHT22;18384;48.860;9.188;2023-07-02T05:44:05;19.50;94.90
31819;DHT22;18384;48.860;9.188;2023-07-02T05:46:32;19.70;95.00
31819;DHT22;18384;48.860;9.188;2023-07-02T05:48:58;19.80;95.10
31819;DHT22;18384;48.860;9.188;2023-07-02T05:51:25;19.90;94.10
31819;DHT22;18384;48.860;9.188;2023-07-02T05:53:52;20.10;93.80
31819;DHT22;18384;48.860;9.188;2023-07-02T05:56:18;20.30;93.20
31819;DHT22;18384;48.860;9.188;2023-07-02T05:58:46;20.30;92.70
31819;DHT22;18384;48.860;9.188;2023-07-02T06:01:13;20.40;92.50
31819;DHT22;18384;48.860;9.188;2023-07-02T06:03:39;20.50;92.80
31819;DHT22;18384;48.860;9.188;2023-07-02T06:06:05;20.80;92.00
31819;DHT22;18384;48.860;9.188;2023-07-02T06:08:31;20.90;92.20
31819;DHT22;18384;48.860;9.188;2023-07-02T06:10:57;20.90;91.00
31819;DHT22;18384;48.860;9.188;2023-07-02T06:13:24;21.10;90.80
31819;DHT22;18384;48.860;9.188;2023-07-02T06:15:50;21.20;90.70
31819;DHT22;18384;48.860;9.188;2023-07-02T06:18:16;21.20;91.00
31819;DHT22;18384;48.860;9.188;2023-07-02T06:20:43;21.00;91.10
31819;DHT22;18384;48.860;9.188;2023-07-02T06:23:09;20.90;92.00
31819;DHT22;18384;48.860;9.188;2023-07-02T06:25:35;20.80;91.40
31819;DHT22;18384;48.860;9.188;2023-07-02T06:28:01;20.70;90.70
31819;DHT22;18384;48.860;9.188;2023-07-02T06:30:28;20.70;91.60
31819;DHT22;18384;48.860;9.188;2023-07-02T06:32:54;20.70;91.10
31819;DHT22;18384;48.860;9.188;2023-07-02T06:35:20;20.60;91.50
31819;DHT22;18384;48.860;9.188;2023-07-02T06:37:47;20.50;91.10
31819;DHT22;18384;48.860;9.188;2023-07-02T06:40:13;20.50;91.10
31819;DHT22;18384;48.860;9.188;2023-07-02T06:42:40;20.40;91.80
31819;DHT22;18384;48.860;9.188;2023-07-02T06:45:07;20.40;91.40
31819;DHT22;18384;48.860;9.188;2023-07-02T06:47:33;20.50;91.30
31819;DHT22;18384;48.860;9.188;2023-07-02T06:49:59;20.50;91.50
31819;DHT22;18384;48.860;9.188;2023-07-02T06:52:25;20.70;91.60
31819;DHT22;18384;48.860;9.188;2023-07-02T06:54:51;20.60;90.90
31819;DHT22;18384;48.860;9.188;2023-07-02T06:57:17;20.60;91.00
31819;DHT22;18384;48.860;9.188;2023-07-02T06:59:43;20.60;90.70
31819;DHT22;18384;48.860;9.188;2023-07-02T07:02:10;20.60;90.50
31819;DHT22;18384;48.860;9.188;2023-07-02T07:04:36;20.60;90.70
31819;DHT22;18384;48.860;9.188;2023-07-02T07:07:02;20.70;91.50
31819;DHT22;18384;48.860;9.188;2023-07-02T07:09:29;20.60;91.20
31819;DHT22;18384;48.860;9.188;2023-07-02T07:11:55;22.00;91.40
31819;DHT22;18384;48.860;9.188;2023-07-02T07:14:22;20.70;91.30
31819;DHT22;18384;48.860;9.188;2023-07-02T07:16:48;20.80;91.40
31819;DHT22;18384;48.860;9.188;2023-07-02T07:19:14;20.70;90.50
31819;DHT22;18384;48.860;9.188;2023-07-02T07:21:40;20.60;90.30
31819;DHT22;18384;48.860;9.188;2023-07-02T07:24:06;20.70;90.90
31819;DHT22;18384;48.860;9.188;2023-07-02T07:26:32;20.60;90.40
31819;DHT22;18384;48.860;9.188;2023-07-02T07:28:58;20.60;90.30
31819;DHT22;18384;48.860;9.188;2023-07-02T07:31:24;20.60;88.90
31819;DHT22;18384;48.860;9.188;2023-07-02T07:33:51;20.50;89.60
31819;DHT22;18384;48.860;9.188;2023-07-02T07:36:17;20.50;89.20
31819;DHT22;18384;48.860;9.188;2023-07-02T07:38:43;20.60;89.20
31819;DHT22;18384;48.860;9.188;2023-07-02T07:41:10;20.60;88.50
31819;DHT22;18384;48.860;9.188;2023-07-02T07:43:36;20.60;88.10
31819;DHT22;18384;48.860;9.188;2023-07-02T07:46:02;20.60;88.10
31819;DHT22;18384;48.860;9.188;2023-07-02T07:48:28;20.50;86.70
31819;DHT22;18384;48.860;9.188;2023-07-02T07:50:54;20.50;87.00
31819;DHT22;18384;48.860;9.188;2023-07-02T07:53:20;20.60;87.90
31819;DHT22;18384;48.860;9.188;2023-07-02T07:55:46;20.60;88.50
31819;DHT22;18384;48.860;9.188;2023-07-02T07:58:12;20.70;86.60
31819;DHT22;18384;48.860;9.188;2023-07-02T08:00:38;20.70;86.90
31819;DHT22;18384;48.860;9.188;2023-07-02T08:03:05;20.70;86.90
31819;DHT22;18384;48.860;9.188;2023-07-02T08:05:31;20.80;86.70
31819;DHT22;18384;48.860;9.188;2023-07-02T08:07:58;20.80;86.70
31819;DHT22;18384;48.860;9.188;2023-07-02T08:10:24;20.80;86.10
31819;DHT22;18384;48.860;9.188;2023-07-02T08:12:51;20.80;86.20
31819;DHT22;18384;48.860;9.188;2023-07-02T08:15:20;20.80;85.70
31819;DHT22;18384;48.860;9.188;2023-07-02T08:17:46;20.90;86.10
31819;DHT22;18384;48.860;9.188;2023-07-02T08:20:12;20.90;85.80
31819;DHT22;18384;48.860;9.188;2023-07-02T08:22:39;21.00;85.10
31819;DHT22;18384;48.860;9.188;2023-07-02T08:25:06;21.00;83.80
31819;DHT22;18384;48.860;9.188;2023-07-02T08:27:33;21.00;84.40
31819;DHT22;18384;48.860;9.188;2023-07-02T08:30:00;21.00;83.50
31819;DHT22;18384;48.860;9.188;2023-07-02T08:32:26;21.00;83.70
31819;DHT22;18384;48.860;9.188;2023-07-02T08:34:52;21.20;83.60
31819;DHT22;18384;48.860;9.188;2023-07-02T08:37:20;21.20;84.00
31819;DHT22;18384;48.860;9.188;2023-07-02T08:39:46;21.20;83.70
31819;DHT22;18384;48.860;9.188;2023-07-02T08:42:14;21.20;84.60
31819;DHT22;18384;48.860;9.188;2023-07-02T08:44:42;21.30;83.30
31819;DHT22;18384;48.860;9.188;2023-07-02T08:47:10;21.40;85.00
31819;DHT22;18384;48.860;9.188;2023-07-02T08:49:36;21.40;83.30
31819;DHT22;18384;48.860;9.188;2023-07-02T08:52:03;22.50;83.60
31819;DHT22;18384;48.860;9.188;2023-07-02T08:54:29;21.60;82.60
31819;DHT22;18384;48.860;9.188;2023-07-02T08:56:55;21.60;81.20
31819;DHT22;18384;48.860;9.188;2023-07-02T08:59:21;21.60;81.90
31819;DHT22;18384;48.860;9.188;2023-07-02T09:01:51;21.50;82.20
31819;DHT22;18384;48.860;9.188;2023-07-02T09:04:23;21.40;82.10
31819;DHT22;18384;48.860;9.188;2023-07-02T09:07:12;21.40;82.50
31819;DHT22;18384;48.860;9.188;2023-07-02T09:09:46;21.50;81.40
31819;DHT22;18384;48.860;9.188;2023-07-02T09:12:26;21.60;83.50
31819;DHT22;18384;48.860;9.188;2023-07-02T09:14:58;21.70;81.20
31819;DHT22;18384;48.860;9.188;2023-07-02T09:17:30;21.80;80.10
31819;DHT22;18384;48.860;9.188;2023-07-02T09:19:58;21.90;80.90
31819;DHT22;18384;48.860;9.188;2023-07-02T09:22:26;21.90;79.80
31819;DHT22;18384;48.860;9.188;2023-07-02T09:24:55;22.10;80.20
31819;DHT22;18384;48.860;9.188;2023-07-02T09:27:38;22.10;79.60
31819;DHT22;18384;48.860;9.188;2023-07-02T09:30:13;22.20;79.50
31819;DHT22;18384;48.860;9.188;2023-07-02T09:32:42;22.30;77.90
31819;DHT22;18384;48.860;9.188;2023-07-02T09:35:10;22.50;77.60
31819;DHT22;18384;48.860;9.188;2023-07-02T09:37:36;22.60;79.10
31819;DHT22;18384;48.860;9.188;2023-07-02T09:40:07;22.60;77.40
31819;DHT22;18384;48.860;9.188;2023-07-02T09:42:35;22.10;77.30
31819;DHT22;18384;48.860;9.188;2023-07-02T09:45:09;23.20;78.00
31819;DHT22;18384;48.860;9.188;2023-07-02T09:47:43;22.50;76.70
31819;DHT22;18384;48.860;9.188;2023-07-02T09:50:13;22.40;77.00
31819;DHT22;18384;48.860;9.188;2023-07-02T09:52:40;22.40;78.00
31819;DHT22;18384;48.860;9.188;2023-07-02T09:55:07;22.40;77.90
31819;DHT22;18384;48.860;9.188;2023-07-02T09:57:34;22.50;77.20
31819;DHT22;18384;48.860;9.188;2023-07-02T10:00:00;22.40;78.60
31819;DHT22;18384;48.860;9.188;2023-07-02T10:02:28;21.70;78.30
31819;DHT22;18384;48.860;9.188;2023-07-02T10:04:54;22.50;77.90
31819;DHT22;18384;48.860;9.188;2023-07-02T10:07:27;22.50;76.90
31819;DHT22;18384;48.860;9.188;2023-07-02T10:09:55;22.50;76.70
31819;DHT22;18384;48.860;9.188;2023-07-02T10:12:27;22.60;76.10
31819;DHT22;18384;48.860;9.188;2023-07-02T10:14:56;22.40;75.90
31819;DHT22;18384;48.860;9.188;2023-07-02T10:17:33;22.40;76.60
31819;DHT22;18384;48.860;9.188;2023-07-02T10:20:05;22.40;78.20
31819;DHT22;18384;48.860;9.188;2023-07-02T10:22:47;22.50;77.00
31819;DHT22;18384;48.860;9.188;2023-07-02T10:25:25;22.50;77.00
31819;DHT22;18384;48.860;9.188;2023-07-02T10:27:52;22.60;76.00
31819;DHT22;18384;48.860;9.188;2023-07-02T10:30:18;22.70;77.70
31819;DHT22;18384;48.860;9.188;2023-07-02T10:32:44;22.80;77.30
31819;DHT22;18384;48.860;9.188;2023-07-02T10:35:16;22.80;75.30
31819;DHT22;18384;48.860;9.188;2023-07-02T10:37:44;22.90;76.10
31819;DHT22;18384;48.860;9.188;2023-07-02T10:40:11;23.00;76.20
31819;DHT22;18384;48.860;9.188;2023-07-02T10:42:48;23.20;76.30
31819;DHT22;18384;48.860;9.188;2023-07-02T10:45:14;23.30;74.80
31819;DHT22;18384;48.860;9.188;2023-07-02T10:47:41;23.20;76.00
31819;DHT22;18384;48.860;9.188;2023-07-02T10:50:19;23.20;75.30
31819;DHT22;18384;48.860;9.188;2023-07-02T10:52:46;23.10;76.40
31819;DHT22;18384;48.860;9.188;2023-07-02T10:55:20;23.20;77.10
31819;DHT22;18384;48.860;9.188;2023-07-02T10:57:49;23.30;76.60
31819;DHT22;18384;48.860;9.188;2023-07-02T11:00:19;23.30;75.60
31819;DHT22;18384;48.860;9.188;2023-07-02T11:02:45;23.30;76.30
31819;DHT22;18384;48.860;9.188;2023-07-02T11:05:12;23.40;76.40
31819;DHT22;18384;48.860;9.188;2023-07-02T11:07:40;23.50;76.20
31819;DHT22;18384;48.860;9.188;2023-07-02T11:10:07;23.50;75.60
31819;DHT22;18384;48.860;9.188;2023-07-02T11:12:35;23.70;77.20
31819;DHT22;18384;48.860;9.188;2023-07-02T11:15:09;23.80;73.50
31819;DHT22;18384;48.860;9.188;2023-07-02T11:17:36;24.00;74.00
31819;DHT22;18384;48.860;9.188;2023-07-02T11:20:03;24.20;73.90
31819;DHT22;18384;48.860;9.188;2023-07-02T11:22:33;24.20;72.40
31819;DHT22;18384;48.860;9.188;2023-07-02T11:25:18;24.00;72.40
31819;DHT22;18384;48.860;9.188;2023-07-02T11:27:45;23.80;73.90
31819;DHT22;18384;48.860;9.188;2023-07-02T11:30:12;23.70;74.70
31819;DHT22;18384;48.860;9.188;2023-07-02T11:32:51;23.50;74.40
31819;DHT22;18384;48.860;9.188;2023-07-02T11:35:19;23.40;73.50
31819;DHT22;18384;48.860;9.188;2023-07-02T11:37:46;23.20;74.10
31819;DHT22;18384;48.860;9.188;2023-07-02T11:40:14;23.30;75.90
31819;DHT22;18384;48.860;9.188;2023-07-02T11:42:43;23.30;77.00
31819;DHT22;18384;48.860;9.188;2023-07-02T11:45:09;23.40;75.90
31819;DHT22;18384;48.860;9.188;2023-07-02T11:47:37;23.40;73.60
31819;DHT22;18384;48.860;9.188;2023-07-02T11:50:04;23.40;74.20
31819;DHT22;18384;48.860;9.188;2023-07-02T11:52:31;23.30;74.80
31819;DHT22;18384;48.860;9.188;2023-07-02T11:54:57;23.20;73.90
31819;DHT22;18384;48.860;9.188;2023-07-02T11:57:23;23.20;74.40
31819;DHT22;18384;48.860;9.188;2023-07-02T11:59:50;23.20;74.00
31819;DHT22;18384;48.860;9.188;2023-07-02T12:02:18;23.20;74.30
31819;DHT22;18384;48.860;9.188;2023-07-02T12:04:44;23.20;74.60
31819;DHT22;18384;48.860;9.188;2023-07-02T12:07:10;23.30;75.40
31819;DHT22;18384;48.860;9.188;2023-07-02T12:09:37;23.40;73.90
31819;DHT22;18384;48.860;9.188;2023-07-02T12:12:03;23.40;75.00
31819;DHT22;18384;48.860;9.188;2023-07-02T12:14:30;23.60;74.50
31819;DHT22;18384;48.860;9.188;2023-07-02T12:16:56;23.70;73.00
31819;DHT22;18384;48.860;9.188;2023-07-02T12:19:22;23.70;73.60
31819;DHT22;18384;48.860;9.188;2023-07-02T12:21:48;23.70;71.10
31819;DHT22;18384;48.860;9.188;2023-07-02T12:24:14;23.90;72.00
31819;DHT22;18384;48.860;9.188;2023-07-02T12:26:40;23.90;69.80
31819;DHT22;18384;48.860;9.188;2023-07-02T12:29:07;24.00;70.60
31819;DHT22;18384;48.860;9.188;2023-07-02T12:31:33;24.10;70.90
31819;DHT22;18384;48.860;9.188;2023-07-02T12:33:59;24.10;69.90
31819;DHT22;18384;48.860;9.188;2023-07-02T12:36:25;24.10;69.80
31819;DHT22;18384;48.860;9.188;2023-07-02T12:38:51;24.00;70.30
31819;DHT22;18384;48.860;9.188;2023-07-02T12:41:17;23.90;72.10
31819;DHT22;18384;48.860;9.188;2023-07-02T12:43:43;23.80;70.90
31819;DHT22;18384;48.860;9.188;2023-07-02T12:46:09;23.70;71.20
31819;DHT22;18384;48.860;9.188;2023-07-02T12:48:35;23.80;69.80
31819;DHT22;18384;48.860;9.188;2023-07-02T12:51:02;23.70;69.70
31819;DHT22;18384;48.860;9.188;2023-07-02T12:53:28;23.70;69.40
31819;DHT22;18384;48.860;9.188;2023-07-02T12:55:54;23.80;69.90
31819;DHT22;18384;48.860;9.188;2023-07-02T12:58:20;23.80;72.00
31819;DHT22;18384;48.860;9.188;2023-07-02T13:00:47;23.80;67.80
31819;DHT22;18384;48.860;9.188;2023-07-02T13:03:13;23.80;68.60
31819;DHT22;18384;48.860;9.188;2023-07-02T13:05:40;23.70;68.00
31819;DHT22;18384;48.860;9.188;2023-07-02T13:08:06;23.70;68.50
31819;DHT22;18384;48.860;9.188;2023-07-02T13:10:33;23.80;69.10
31819;DHT22;18384;48.860;9.188;2023-07-02T13:12:59;23.80;67.60
31819;DHT22;18384;48.860;9.188;2023-07-02T13:15:26;23.90;68.50
31819;DHT22;18384;48.860;9.188;2023-07-02T13:17:52;23.90;68.90
31819;DHT22;18384;48.860;9.188;2023-07-02T13:20:18;23.90;68.00
31819;DHT22;18384;48.860;9.188;2023-07-02T13:22:44;23.90;67.30
31819;DHT22;18384;48.860;9.188;2023-07-02T13:25:10;23.90;67.40
31819;DHT22;18384;48.860;9.188;2023-07-02T13:27:36;23.90;68.00
31819;DHT22;18384;48.860;9.188;2023-07-02T13:30:03;23.90;67.80
31819;DHT22;18384;48.860;9.188;2023-07-02T13:32:29;24.00;68.20
31819;DHT22;18384;48.860;9.188;2023-07-02T13:34:55;24.00;67.70
31819;DHT22;18384;48.860;9.188;2023-07-02T13:37:21;24.10;67.30
31819;DHT22;18384;48.860;9.188;2023-07-02T13:39:48;24.00;66.60
31819;DHT22;18384;48.860;9.188;2023-07-02T13:42:15;23.90;66.40
31819;DHT22;18384;48.860;9.188;2023-07-02T13:44:42;23.80;66.60
31819;DHT22;18384;48.860;9.188;2023-07-02T13:47:08;23.80;67.80
31819;DHT22;18384;48.860;9.188;2023-07-02T13:49:34;23.90;68.30
31819;DHT22;18384;48.860;9.188;2023-07-02T13:52:01;23.90;66.80
31819;DHT22;18384;48.860;9.188;2023-07-02T13:54:27;23.90;66.20
31819;DHT22;18384;48.860;9.188;2023-07-02T13:56:53;23.90;67.30
31819;DHT22;18384;48.860;9.188;2023-07-02T13:59:21;24.00;67.90
31819;DHT22;18384;48.860;9.188;2023-07-02T14:01:47;23.90;67.40
31819;DHT22;18384;48.860;9.188;2023-07-02T14:04:15;24.00;69.00
31819;DHT22;18384;48.860;9.188;2023-07-02T14:06:42;24.00;67.60
31819;DHT22;18384;48.860;9.188;2023-07-02T14:09:09;24.00;66.70
31819;DHT22;18384;48.860;9.188;2023-07-02T14:11:38;24.10;65.60
31819;DHT22;18384;48.860;9.188;2023-07-02T14:14:06;24.10;66.00
31819;DHT22;18384;48.860;9.188;2023-07-02T14:16:32;24.20;66.60
31819;DHT22;18384;48.860;9.188;2023-07-02T14:18:58;24.20;64.40
31819;DHT22;18384;48.860;9.188;2023-07-02T14:21:24;24.20;65.00
31819;DHT22;18384;48.860;9.188;2023-07-02T14:23:51;24.30;64.60
31819;DHT22;18384;48.860;9.188;2023-07-02T14:26:17;24.20;63.90
31819;DHT22;18384;48.860;9.188;2023-07-02T14:28:43;24.30;65.00
31819;DHT22;18384;48.860;9.188;2023-07-02T14:31:09;24.30;64.90
31819;DHT22;18384;48.860;9.188;2023-07-02T14:33:37;24.40;65.90
31819;DHT22;18384;48.860;9.188;2023-07-02T14:36:04;24.40;64.40
31819;DHT22;18384;48.860;9.188;2023-07-02T14:38:31;24.40;66.50
31819;DHT22;18384;48.860;9.188;2023-07-02T14:40:59;24.40;65.30
31819;DHT22;18384;48.860;9.188;2023-07-02T14:43:28;24.40;65.70
31819;DHT22;18384;48.860;9.188;2023-07-02T14:46:02;24.40;65.90
31819;DHT22;18384;48.860;9.188;2023-07-02T14:48:30;24.50;64.50
31819;DHT22;18384;48.860;9.188;2023-07-02T14:51:00;24.50;65.30
31819;DHT22;18384;48.860;9.188;2023-07-02T14:53:28;24.50;65.50
31819;DHT22;18384;48.860;9.188;2023-07-02T14:55:57;24.60;65.00
31819;DHT22;18384;48.860;9.188;2023-07-02T14:58:25;24.60;64.50
31819;DHT22;18384;48.860;9.188;2023-07-02T15:00:55;24.60;65.10
31819;DHT22;18384;48.860;9.188;2023-07-02T15:03:23;24.60;65.00
31819;DHT22;18384;48.860;9.188;2023-07-02T15:05:51;24.60;65.20
31819;DHT22;18384;48.860;9.188;2023-07-02T15:08:18;24.60;63.70
31819;DHT22;18384;48.860;9.188;2023-07-02T15:10:51;24.60;65.10
31819;DHT22;18384;48.860;9.188;2023-07-02T15:13:18;24.60;65.40
31819;DHT22;18384;48.860;9.188;2023-07-02T15:15:45;24.60;64.60
31819;DHT22;18384;48.860;9.188;2023-07-02T15:18:12;24.70;64.10
31819;DHT22;18384;48.860;9.188;2023-07-02T15:20:38;24.60;64.70
31819;DHT22;18384;48.860;9.188;2023-07-02T15:23:04;24.60;66.30
31819;DHT22;18384;48.860;9.188;2023-07-02T15:25:31;24.60;65.50
31819;DHT22;18384;48.860;9.188;2023-07-02T15:27:57;24.70;64.40
31819;DHT22;18384;48.860;9.188;2023-07-02T15:30:24;24.70;65.30
31819;DHT22;18384;48.860;9.188;2023-07-02T15:32:50;24.70;65.50